IBE250 LEMD-KMIA
Flight info
| Callsign | IBE250 |
|---|---|
| Flight time | N/A |
| Altitude | 34000 |
| Route | BARD3X BARDI INKIT EPOPO ARMED 42N020W 40N030W 38N040W 33N050W 30N060W 27N070W MILLE ZQA BR49V NICKO VIICE2 |
| Aircraft | A343/H-VGDW/C |
Departure
| Time | 2026-05-05 13:03 |
|---|---|
| Airport | Adolfo Suárez Madrid–Barajas Airport (LEMD) |
Arrival
| Time | N/A |
|---|---|
| Airport | Miami International Airport (KMIA) |
| Time | Latitude | Longitude | Altitude | Speed | Heading |
|---|---|---|---|---|---|
| 2026-05-05 12:45 | 40.49037 | -3.56361 | 1969 ft | 0 kts | 270° |
| 2026-05-05 12:56 | 40.49037 | -3.56366 | 1968 ft | 2 kts | 270° |
| 2026-05-05 12:57 | 40.49036 | -3.56392 | 1967 ft | 4 kts | 269° |
| 2026-05-05 12:57 | 40.49028 | -3.56429 | 1966 ft | 4 kts | 232° |
| 2026-05-05 12:57 | 40.49000 | -3.56447 | 1965 ft | 5 kts | 199° |
| 2026-05-05 12:57 | 40.48965 | -3.56451 | 1965 ft | 5 kts | 181° |
| 2026-05-05 12:58 | 40.48926 | -3.56451 | 1964 ft | 6 kts | 180° |
| 2026-05-05 12:58 | 40.48886 | -3.56451 | 1964 ft | 6 kts | 180° |
| 2026-05-05 12:58 | 40.48872 | -3.56469 | 1964 ft | 3 kts | 234° |
| 2026-05-05 12:58 | 40.48864 | -3.56498 | 1963 ft | 4 kts | 254° |
| 2026-05-05 12:59 | 40.48863 | -3.56551 | 1962 ft | 7 kts | 270° |
| 2026-05-05 12:59 | 40.48863 | -3.56618 | 1961 ft | 8 kts | 270° |
| 2026-05-05 12:59 | 40.48863 | -3.56696 | 1959 ft | 9 kts | 270° |
| 2026-05-05 13:00 | 40.48864 | -3.56882 | 1956 ft | 11 kts | 270° |
| 2026-05-05 13:00 | 40.48864 | -3.56986 | 1954 ft | 12 kts | 269° |
| 2026-05-05 13:01 | 40.48911 | -3.57231 | 1946 ft | 11 kts | 351° |
| 2026-05-05 13:01 | 40.49003 | -3.57243 | 1939 ft | 15 kts | 339° |
| 2026-05-05 13:01 | 40.49094 | -3.57350 | 1931 ft | 19 kts | 315° |
| 2026-05-05 13:01 | 40.49206 | -3.57453 | 1927 ft | 20 kts | 348° |
| 2026-05-05 13:02 | 40.49389 | -3.57462 | 1929 ft | 42 kts | 359° |
| 2026-05-05 13:02 | 40.49847 | -3.57464 | 1935 ft | 88 kts | 359° |
| 2026-05-05 13:02 | 40.50601 | -3.57469 | 1949 ft | 127 kts | 360° |
| 2026-05-05 13:02 | 40.51597 | -3.57474 | 1965 ft | 159 kts | 360° |
| 2026-05-05 13:03 | 40.52792 | -3.57480 | 2060 ft | 179 kts | 356° |
| 2026-05-05 13:03 | 40.54046 | -3.57461 | 2376 ft | 185 kts | 358° |
| 2026-05-05 13:03 | 40.55366 | -3.57446 | 2639 ft | 193 kts | 357° |
| 2026-05-05 13:03 | 40.56703 | -3.57451 | 3195 ft | 191 kts | 356° |
| 2026-05-05 13:04 | 40.58093 | -3.57464 | 3474 ft | 209 kts | 357° |
| 2026-05-05 13:04 | 40.59633 | -3.57468 | 3680 ft | 234 kts | 359° |
| 2026-05-05 13:04 | 40.61294 | -3.57038 | 4139 ft | 253 kts | 18° |
| 2026-05-05 13:04 | 40.62944 | -3.56105 | 4727 ft | 262 kts | 18° |
| 2026-05-05 13:05 | 40.64724 | -3.55630 | 5424 ft | 260 kts | 358° |
| 2026-05-05 13:05 | 40.66543 | -3.55630 | 6124 ft | 263 kts | 354° |
| 2026-05-05 13:05 | 40.68390 | -3.55682 | 6825 ft | 267 kts | 356° |
| 2026-05-05 13:05 | 40.70233 | -3.55718 | 7498 ft | 270 kts | 356° |
| 2026-05-05 13:06 | 40.72125 | -3.55740 | 8152 ft | 273 kts | 357° |
| 2026-05-05 13:06 | 40.74035 | -3.55747 | 8847 ft | 276 kts | 356° |
| 2026-05-05 13:06 | 40.75963 | -3.55793 | 9515 ft | 278 kts | 353° |
| 2026-05-05 13:06 | 40.77839 | -3.56412 | 10040 ft | 280 kts | 331° |
| 2026-05-05 13:07 | 40.79383 | -3.57975 | 10447 ft | 286 kts | 308° |
| 2026-05-05 13:07 | 40.80302 | -3.60341 | 10695 ft | 299 kts | 283° |
| 2026-05-05 13:07 | 40.80332 | -3.63130 | 10938 ft | 314 kts | 258° |
| 2026-05-05 13:07 | 40.79373 | -3.65782 | 11179 ft | 331 kts | 234° |
| 2026-05-05 13:08 | 40.78084 | -3.68359 | 11415 ft | 343 kts | 248° |
| 2026-05-05 13:08 | 40.77358 | -3.71395 | 11798 ft | 349 kts | 257° |
| 2026-05-05 13:08 | 40.76984 | -3.73462 | 12089 ft | 353 kts | 258° |
| 2026-05-05 13:08 | 40.76430 | -3.76647 | 12624 ft | 358 kts | 258° |
| 2026-05-05 13:09 | 40.75872 | -3.79869 | 13176 ft | 362 kts | 258° |
| 2026-05-05 13:09 | 40.75122 | -3.84168 | 14004 ft | 363 kts | 258° |
| 2026-05-05 13:09 | 40.74556 | -3.87396 | 14626 ft | 363 kts | 258° |
| 2026-05-05 13:09 | 40.73983 | -3.90663 | 15082 ft | 367 kts | 258° |
| 2026-05-05 13:10 | 40.73599 | -3.92841 | 15436 ft | 369 kts | 258° |
| 2026-05-05 13:10 | 40.73016 | -3.96153 | 15940 ft | 372 kts | 258° |
| 2026-05-05 13:10 | 40.72427 | -3.99485 | 16478 ft | 374 kts | 258° |
| 2026-05-05 13:10 | 40.71836 | -4.02823 | 17006 ft | 377 kts | 258° |
| 2026-05-05 13:11 | 40.71237 | -4.06197 | 17508 ft | 380 kts | 258° |
| 2026-05-05 13:11 | 40.70632 | -4.09601 | 18069 ft | 382 kts | 258° |
| 2026-05-05 13:11 | 40.70024 | -4.13020 | 18538 ft | 384 kts | 258° |
| 2026-05-05 13:11 | 40.69411 | -4.16455 | 18988 ft | 387 kts | 258° |
| 2026-05-05 13:12 | 40.68792 | -4.19916 | 19458 ft | 388 kts | 258° |
| 2026-05-05 13:12 | 40.68170 | -4.23387 | 19916 ft | 390 kts | 258° |
| 2026-05-05 13:12 | 40.67545 | -4.26875 | 20389 ft | 392 kts | 258° |
| 2026-05-05 13:12 | 40.66916 | -4.30376 | 20862 ft | 394 kts | 258° |
| 2026-05-05 13:13 | 40.66283 | -4.33894 | 21312 ft | 396 kts | 258° |
| 2026-05-05 13:13 | 40.65644 | -4.37437 | 21754 ft | 398 kts | 258° |
| 2026-05-05 13:13 | 40.65001 | -4.40995 | 22180 ft | 400 kts | 258° |
| 2026-05-05 13:13 | 40.64355 | -4.44563 | 22612 ft | 402 kts | 258° |
| 2026-05-05 13:14 | 40.63712 | -4.48111 | 23009 ft | 404 kts | 258° |
| 2026-05-05 13:14 | 40.63037 | -4.51713 | 23419 ft | 406 kts | 256° |
| 2026-05-05 13:14 | 40.62048 | -4.55205 | 23767 ft | 410 kts | 245° |
| 2026-05-05 13:14 | 40.60542 | -4.58425 | 24100 ft | 414 kts | 238° |
| 2026-05-05 13:15 | 40.58829 | -4.61487 | 24417 ft | 417 kts | 237° |
| 2026-05-05 13:15 | 40.57081 | -4.64542 | 24754 ft | 419 kts | 237° |
| 2026-05-05 13:15 | 40.55322 | -4.67610 | 25071 ft | 420 kts | 237° |
| 2026-05-05 13:15 | 40.53563 | -4.70683 | 25400 ft | 421 kts | 237° |
| 2026-05-05 13:16 | 40.51799 | -4.73770 | 25703 ft | 423 kts | 237° |
| 2026-05-05 13:16 | 40.50031 | -4.76868 | 26026 ft | 424 kts | 237° |
| 2026-05-05 13:16 | 40.48277 | -4.79991 | 26322 ft | 424 kts | 239° |
| 2026-05-05 13:16 | 40.46756 | -4.83295 | 26617 ft | 422 kts | 246° |
| 2026-05-05 13:17 | 40.45634 | -4.86851 | 26899 ft | 420 kts | 255° |
| 2026-05-05 13:17 | 40.44956 | -4.90576 | 27177 ft | 419 kts | 263° |
| 2026-05-05 13:17 | 40.44731 | -4.94386 | 27454 ft | 419 kts | 271° |
| 2026-05-05 13:17 | 40.44941 | -4.98203 | 27767 ft | 418 kts | 278° |
| 2026-05-05 13:18 | 40.45338 | -5.01988 | 28127 ft | 418 kts | 278° |
| 2026-05-05 13:18 | 40.45755 | -5.05767 | 28410 ft | 419 kts | 278° |
| 2026-05-05 13:18 | 40.46170 | -5.09562 | 28631 ft | 421 kts | 278° |
| 2026-05-05 13:18 | 40.46580 | -5.13377 | 28867 ft | 423 kts | 278° |
| 2026-05-05 13:19 | 40.46973 | -5.17059 | 29092 ft | 424 kts | 278° |
| 2026-05-05 13:19 | 40.47130 | -5.18540 | 29218 ft | 424 kts | 278° |
| 2026-05-05 13:19 | 40.47531 | -5.22328 | 29583 ft | 422 kts | 278° |
| 2026-05-05 13:19 | 40.47932 | -5.26143 | 29986 ft | 421 kts | 278° |
| 2026-05-05 13:20 | 40.48330 | -5.29939 | 30285 ft | 420 kts | 278° |
| 2026-05-05 13:20 | 40.48727 | -5.33747 | 30490 ft | 420 kts | 278° |
| 2026-05-05 13:20 | 40.49120 | -5.37535 | 30866 ft | 416 kts | 278° |
| 2026-05-05 13:20 | 40.49509 | -5.41296 | 31159 ft | 415 kts | 278° |
| 2026-05-05 13:21 | 40.49898 | -5.45057 | 31363 ft | 415 kts | 278° |
| 2026-05-05 13:21 | 40.50285 | -5.48821 | 31567 ft | 416 kts | 278° |
| 2026-05-05 13:21 | 40.50671 | -5.52586 | 31808 ft | 416 kts | 278° |
| 2026-05-05 13:21 | 40.51057 | -5.56354 | 32012 ft | 416 kts | 278° |
| 2026-05-05 13:22 | 40.51440 | -5.60120 | 32240 ft | 416 kts | 278° |
| 2026-05-05 13:22 | 40.51823 | -5.63885 | 32454 ft | 416 kts | 278° |
| 2026-05-05 13:22 | 40.52203 | -5.67647 | 32673 ft | 415 kts | 278° |
| 2026-05-05 13:22 | 40.52577 | -5.71358 | 32842 ft | 415 kts | 278° |
| 2026-05-05 13:23 | 40.52954 | -5.75104 | 33199 ft | 411 kts | 278° |
| 2026-05-05 13:23 | 40.53327 | -5.78833 | 33494 ft | 410 kts | 278° |
| 2026-05-05 13:23 | 40.53698 | -5.82547 | 33664 ft | 410 kts | 278° |
| 2026-05-05 13:23 | 40.54069 | -5.86275 | 33839 ft | 411 kts | 278° |
| 2026-05-05 13:24 | 40.54439 | -5.90002 | 33969 ft | 412 kts | 278° |
| 2026-05-05 13:24 | 40.54811 | -5.93760 | 34008 ft | 414 kts | 278° |
| 2026-05-05 13:24 | 40.55545 | -6.01212 | 34006 ft | 413 kts | 278° |
| 2026-05-05 13:25 | 40.56275 | -6.08690 | 33997 ft | 412 kts | 278° |
| 2026-05-05 13:25 | 40.56997 | -6.16138 | 34005 ft | 408 kts | 278° |
| 2026-05-05 13:26 | 40.57711 | -6.23539 | 34008 ft | 407 kts | 278° |
| 2026-05-05 13:26 | 40.58815 | -6.30817 | 34010 ft | 406 kts | 289° |
| 2026-05-05 13:27 | 40.61114 | -6.37608 | 34009 ft | 407 kts | 295° |
| 2026-05-05 13:27 | 40.63668 | -6.44200 | 34013 ft | 407 kts | 295° |
| 2026-05-05 13:28 | 40.66259 | -6.50831 | 34010 ft | 405 kts | 296° |
| 2026-05-05 13:28 | 40.68812 | -6.57447 | 34021 ft | 403 kts | 296° |
| 2026-05-05 13:29 | 40.71333 | -6.64043 | 34018 ft | 403 kts | 295° |
| 2026-05-05 13:29 | 40.73861 | -6.70679 | 34021 ft | 406 kts | 296° |
| 2026-05-05 13:30 | 40.76376 | -6.77295 | 34020 ft | 407 kts | 296° |
| 2026-05-05 13:30 | 40.78914 | -6.83984 | 34018 ft | 407 kts | 296° |
| 2026-05-05 13:31 | 40.81438 | -6.90652 | 34017 ft | 404 kts | 296° |
| 2026-05-05 13:31 | 40.83944 | -6.97286 | 34017 ft | 403 kts | 296° |
| 2026-05-05 13:32 | 40.86445 | -7.03922 | 34022 ft | 404 kts | 296° |
| 2026-05-05 13:32 | 40.88945 | -7.10570 | 34018 ft | 403 kts | 296° |
| 2026-05-05 13:33 | 40.91425 | -7.17178 | 34053 ft | 404 kts | 296° |
| 2026-05-05 13:33 | 40.93927 | -7.23864 | 33998 ft | 406 kts | 296° |
| 2026-05-05 13:34 | 40.96430 | -7.30568 | 34029 ft | 406 kts | 296° |
| 2026-05-05 13:34 | 40.98925 | -7.37266 | 34025 ft | 406 kts | 296° |
| 2026-05-05 13:35 | 41.01419 | -7.43974 | 34024 ft | 406 kts | 296° |
| 2026-05-05 13:35 | 41.03895 | -7.50652 | 34029 ft | 406 kts | 296° |
| 2026-05-05 13:36 | 41.06384 | -7.57376 | 34029 ft | 406 kts | 296° |
| 2026-05-05 13:36 | 41.08867 | -7.64106 | 34033 ft | 407 kts | 296° |
| 2026-05-05 13:37 | 41.11372 | -7.70885 | 34035 ft | 407 kts | 296° |
| 2026-05-05 13:37 | 41.13855 | -7.77645 | 34037 ft | 407 kts | 296° |
| 2026-05-05 13:38 | 41.16328 | -7.84407 | 34035 ft | 407 kts | 296° |
| 2026-05-05 13:38 | 41.18797 | -7.91173 | 34038 ft | 408 kts | 296° |
| 2026-05-05 13:39 | 41.21145 | -7.98030 | 34039 ft | 408 kts | 295° |
| 2026-05-05 13:39 | 41.23415 | -8.04833 | 34056 ft | 408 kts | 295° |
| 2026-05-05 13:40 | 41.24274 | -8.07399 | 34056 ft | 408 kts | 295° |
| 2026-05-05 13:40 | 41.26592 | -8.14285 | 34057 ft | 408 kts | 295° |
| 2026-05-05 13:41 | 41.28914 | -8.21166 | 34065 ft | 408 kts | 295° |
| 2026-05-05 13:41 | 41.31235 | -8.28054 | 34067 ft | 408 kts | 295° |
| 2026-05-05 13:42 | 41.33554 | -8.34950 | 34035 ft | 409 kts | 295° |
| 2026-05-05 13:42 | 41.35878 | -8.41882 | 34069 ft | 411 kts | 295° |
| 2026-05-05 13:43 | 41.38200 | -8.48832 | 34089 ft | 411 kts | 295° |
| 2026-05-05 13:43 | 41.40520 | -8.55792 | 34095 ft | 411 kts | 295° |
| 2026-05-05 13:44 | 41.42837 | -8.62761 | 34092 ft | 411 kts | 295° |
| 2026-05-05 13:44 | 41.45154 | -8.69745 | 34114 ft | 412 kts | 295° |
| 2026-05-05 13:45 | 41.47463 | -8.76721 | 34089 ft | 413 kts | 294° |
| 2026-05-05 13:45 | 41.49775 | -8.83722 | 34089 ft | 415 kts | 294° |
| 2026-05-05 13:46 | 41.52097 | -8.90776 | 34089 ft | 415 kts | 294° |
| 2026-05-05 13:46 | 41.54411 | -8.97824 | 34091 ft | 415 kts | 294° |
| 2026-05-05 13:47 | 41.56720 | -9.04875 | 34094 ft | 415 kts | 294° |
| 2026-05-05 13:47 | 41.59030 | -9.11945 | 34093 ft | 415 kts | 294° |
| 2026-05-05 13:48 | 41.61344 | -9.19046 | 34100 ft | 418 kts | 294° |
| 2026-05-05 13:48 | 41.63647 | -9.26133 | 34102 ft | 418 kts | 294° |
| 2026-05-05 13:49 | 41.65953 | -9.33249 | 34100 ft | 417 kts | 294° |
| 2026-05-05 13:49 | 41.68255 | -9.40368 | 34102 ft | 417 kts | 294° |
| 2026-05-05 13:50 | 41.70560 | -9.47517 | 34078 ft | 417 kts | 294° |
| 2026-05-05 13:50 | 41.72866 | -9.54685 | 34106 ft | 420 kts | 293° |
| 2026-05-05 13:51 | 41.75162 | -9.61844 | 34108 ft | 421 kts | 293° |
| 2026-05-05 13:51 | 41.77466 | -9.69047 | 34110 ft | 421 kts | 293° |
| 2026-05-05 13:52 | 41.79768 | -9.76267 | 34110 ft | 421 kts | 294° |
| 2026-05-05 13:52 | 41.82059 | -9.83467 | 34084 ft | 420 kts | 294° |
| 2026-05-05 13:53 | 41.84355 | -9.90697 | 34115 ft | 422 kts | 293° |
| 2026-05-05 13:53 | 41.86655 | -9.97966 | 34111 ft | 423 kts | 293° |
| 2026-05-05 13:54 | 41.88952 | -10.05244 | 34114 ft | 423 kts | 293° |
| 2026-05-05 13:54 | 41.91229 | -10.12480 | 34114 ft | 423 kts | 293° |
| 2026-05-05 13:55 | 41.93440 | -10.19812 | 34118 ft | 423 kts | 288° |
| 2026-05-05 13:55 | 41.94902 | -10.27491 | 34136 ft | 427 kts | 284° |
| 2026-05-05 13:56 | 41.95984 | -10.33981 | 34121 ft | 427 kts | 283° |
| 2026-05-05 13:56 | 41.97250 | -10.41777 | 34121 ft | 427 kts | 283° |
| 2026-05-05 13:57 | 41.98519 | -10.49585 | 34127 ft | 427 kts | 283° |
| 2026-05-05 13:57 | 41.99787 | -10.57377 | 34119 ft | 427 kts | 283° |
| 2026-05-05 13:58 | 42.01059 | -10.65206 | 34127 ft | 430 kts | 283° |
| 2026-05-05 13:58 | 42.02332 | -10.73081 | 34133 ft | 431 kts | 283° |
| 2026-05-05 13:59 | 42.04229 | -10.84892 | 34128 ft | 431 kts | 283° |
| 2026-05-05 14:00 | 42.06108 | -10.96670 | 34135 ft | 431 kts | 282° |
| 2026-05-05 14:00 | 42.07364 | -11.04585 | 34147 ft | 433 kts | 282° |
| 2026-05-05 14:01 | 42.08610 | -11.12480 | 34140 ft | 433 kts | 283° |
| 2026-05-05 14:01 | 42.09856 | -11.20413 | 34145 ft | 432 kts | 283° |
| 2026-05-05 14:02 | 42.11096 | -11.28347 | 34141 ft | 432 kts | 282° |
| 2026-05-05 14:02 | 42.12331 | -11.36279 | 34146 ft | 433 kts | 282° |
| 2026-05-05 14:03 | 42.13563 | -11.44238 | 34148 ft | 435 kts | 282° |
| 2026-05-05 14:03 | 42.14792 | -11.52211 | 34150 ft | 435 kts | 282° |
| 2026-05-05 14:04 | 42.16011 | -11.60159 | 34144 ft | 435 kts | 282° |
| 2026-05-05 14:04 | 42.17228 | -11.68135 | 34144 ft | 435 kts | 282° |
| 2026-05-05 14:05 | 42.18447 | -11.76169 | 34155 ft | 435 kts | 282° |
| 2026-05-05 14:05 | 42.19648 | -11.84114 | 34159 ft | 435 kts | 282° |
| 2026-05-05 14:06 | 42.20851 | -11.92115 | 34156 ft | 435 kts | 282° |
| 2026-05-05 14:06 | 42.22046 | -12.00106 | 34156 ft | 435 kts | 282° |
| 2026-05-05 14:07 | 42.23238 | -12.08115 | 34169 ft | 436 kts | 282° |
| 2026-05-05 14:07 | 42.24430 | -12.16161 | 34169 ft | 437 kts | 282° |
| 2026-05-05 14:08 | 42.25609 | -12.24168 | 34157 ft | 437 kts | 282° |
| 2026-05-05 14:08 | 42.26797 | -12.32272 | 34158 ft | 437 kts | 282° |
| 2026-05-05 14:09 | 42.27971 | -12.40326 | 34171 ft | 437 kts | 282° |
| 2026-05-05 14:09 | 42.29136 | -12.48354 | 34177 ft | 439 kts | 282° |
| 2026-05-05 14:10 | 42.30303 | -12.56437 | 34175 ft | 438 kts | 281° |
| 2026-05-05 14:10 | 42.31464 | -12.64529 | 34180 ft | 438 kts | 281° |
| 2026-05-05 14:11 | 42.32620 | -12.72624 | 34171 ft | 438 kts | 282° |
| 2026-05-05 14:11 | 42.33770 | -12.80720 | 34181 ft | 438 kts | 282° |
| 2026-05-05 14:12 | 42.34916 | -12.88826 | 34179 ft | 440 kts | 281° |
| 2026-05-05 14:12 | 42.36050 | -12.96901 | 34188 ft | 440 kts | 281° |
| 2026-05-05 14:13 | 42.37187 | -13.05035 | 34188 ft | 440 kts | 281° |
| 2026-05-05 14:13 | 42.38319 | -13.13173 | 34190 ft | 440 kts | 281° |
| 2026-05-05 14:14 | 42.39443 | -13.21306 | 34192 ft | 441 kts | 281° |
| 2026-05-05 14:14 | 42.40565 | -13.29467 | 34192 ft | 441 kts | 281° |
| 2026-05-05 14:15 | 42.41675 | -13.37578 | 34197 ft | 441 kts | 281° |
| 2026-05-05 14:15 | 42.42791 | -13.45786 | 34198 ft | 441 kts | 281° |
| 2026-05-05 14:16 | 42.43886 | -13.53888 | 34199 ft | 441 kts | 281° |
| 2026-05-05 14:16 | 42.44986 | -13.62063 | 34200 ft | 441 kts | 281° |
| 2026-05-05 14:17 | 42.46078 | -13.70231 | 34202 ft | 441 kts | 281° |
| 2026-05-05 14:17 | 42.47166 | -13.78414 | 34203 ft | 441 kts | 281° |
| 2026-05-05 14:18 | 42.48249 | -13.86601 | 34195 ft | 441 kts | 281° |
| 2026-05-05 14:18 | 42.49327 | -13.94800 | 34211 ft | 442 kts | 281° |
| 2026-05-05 14:19 | 42.49777 | -14.03106 | 34213 ft | 445 kts | 269° |
| 2026-05-05 14:19 | 42.49394 | -14.11473 | 34214 ft | 446 kts | 268° |
| 2026-05-05 14:20 | 42.48892 | -14.19798 | 34214 ft | 446 kts | 267° |
| 2026-05-05 14:20 | 42.48373 | -14.28225 | 34219 ft | 447 kts | 268° |
| 2026-05-05 14:21 | 42.47866 | -14.36613 | 34219 ft | 447 kts | 268° |
| 2026-05-05 14:21 | 42.47362 | -14.44960 | 34219 ft | 447 kts | 268° |
| 2026-05-05 14:22 | 42.46851 | -14.53363 | 34227 ft | 447 kts | 268° |
| 2026-05-05 14:22 | 42.46333 | -14.61751 | 34226 ft | 448 kts | 268° |
| 2026-05-05 14:23 | 42.45806 | -14.70178 | 34230 ft | 449 kts | 268° |
| 2026-05-05 14:23 | 42.45271 | -14.78629 | 34229 ft | 449 kts | 267° |
| 2026-05-05 14:24 | 42.44735 | -14.86994 | 34232 ft | 449 kts | 267° |
| 2026-05-05 14:24 | 42.44189 | -14.95425 | 34227 ft | 449 kts | 268° |
| 2026-05-05 14:25 | 42.43636 | -15.03879 | 34237 ft | 451 kts | 268° |
| 2026-05-05 14:25 | 42.43075 | -15.12358 | 34235 ft | 452 kts | 268° |
| 2026-05-05 14:26 | 42.42506 | -15.20841 | 34235 ft | 452 kts | 268° |
| 2026-05-05 14:26 | 42.41935 | -15.29263 | 34240 ft | 452 kts | 267° |
| 2026-05-05 14:27 | 42.41354 | -15.37740 | 34243 ft | 452 kts | 267° |
| 2026-05-05 14:27 | 42.40767 | -15.46219 | 34243 ft | 452 kts | 267° |
| 2026-05-05 14:28 | 42.40175 | -15.54684 | 34246 ft | 452 kts | 267° |
| 2026-05-05 14:28 | 42.39576 | -15.63147 | 34246 ft | 452 kts | 267° |
| 2026-05-05 14:29 | 42.38974 | -15.71649 | 34252 ft | 454 kts | 267° |
| 2026-05-05 14:29 | 42.38363 | -15.80108 | 34254 ft | 455 kts | 267° |
| 2026-05-05 14:30 | 42.37737 | -15.88626 | 34257 ft | 454 kts | 267° |
| 2026-05-05 14:30 | 42.37107 | -15.97139 | 34260 ft | 454 kts | 267° |
| 2026-05-05 14:31 | 42.36474 | -16.05643 | 34257 ft | 456 kts | 267° |
| 2026-05-05 14:31 | 42.35832 | -16.14185 | 34260 ft | 456 kts | 267° |
| 2026-05-05 14:32 | 42.35182 | -16.22731 | 34268 ft | 456 kts | 267° |
| 2026-05-05 14:32 | 42.34530 | -16.31219 | 34268 ft | 456 kts | 267° |
| 2026-05-05 14:33 | 42.33869 | -16.39748 | 34270 ft | 457 kts | 266° |
| 2026-05-05 14:33 | 42.33200 | -16.48287 | 34270 ft | 457 kts | 266° |
| 2026-05-05 14:34 | 42.32524 | -16.56841 | 34271 ft | 457 kts | 266° |
| 2026-05-05 14:34 | 42.31841 | -16.65394 | 34273 ft | 457 kts | 266° |
| 2026-05-05 14:35 | 42.31154 | -16.73932 | 34267 ft | 457 kts | 266° |
| 2026-05-05 14:35 | 42.30458 | -16.82486 | 34269 ft | 458 kts | 266° |
| 2026-05-05 14:36 | 42.29757 | -16.91025 | 34282 ft | 458 kts | 266° |
| 2026-05-05 14:36 | 42.29050 | -16.99563 | 34272 ft | 458 kts | 266° |
| 2026-05-05 14:37 | 42.28335 | -17.08112 | 34281 ft | 457 kts | 266° |
| 2026-05-05 14:37 | 42.27619 | -17.16596 | 34287 ft | 457 kts | 266° |
| 2026-05-05 14:38 | 42.26894 | -17.25116 | 34290 ft | 457 kts | 266° |
| 2026-05-05 14:38 | 42.26161 | -17.33649 | 34284 ft | 457 kts | 266° |
| 2026-05-05 14:39 | 42.25423 | -17.42165 | 34291 ft | 457 kts | 266° |
| 2026-05-05 14:39 | 42.24678 | -17.50685 | 34298 ft | 456 kts | 266° |
| 2026-05-05 14:40 | 42.23931 | -17.59153 | 34290 ft | 456 kts | 266° |
| 2026-05-05 14:40 | 42.23175 | -17.67660 | 34295 ft | 456 kts | 266° |
| 2026-05-05 14:41 | 42.22412 | -17.76164 | 34287 ft | 456 kts | 266° |
| 2026-05-05 14:41 | 42.21774 | -17.83222 | 34299 ft | 456 kts | 266° |
| 2026-05-05 14:42 | 42.21002 | -17.91699 | 34307 ft | 455 kts | 266° |
| 2026-05-05 14:42 | 42.20223 | -18.00181 | 34309 ft | 455 kts | 265° |
| 2026-05-05 14:43 | 42.19441 | -18.08630 | 34306 ft | 454 kts | 265° |
| 2026-05-05 14:43 | 42.18652 | -18.17081 | 34309 ft | 453 kts | 266° |
| 2026-05-05 14:44 | 42.17859 | -18.25509 | 34309 ft | 453 kts | 266° |
| 2026-05-05 14:44 | 42.17059 | -18.33948 | 34312 ft | 453 kts | 265° |
| 2026-05-05 14:45 | 42.16257 | -18.42330 | 34312 ft | 453 kts | 265° |
| 2026-05-05 14:45 | 42.15444 | -18.50759 | 34315 ft | 452 kts | 266° |
| 2026-05-05 14:46 | 42.14627 | -18.59172 | 34312 ft | 452 kts | 266° |
| 2026-05-05 14:46 | 42.13805 | -18.67568 | 34312 ft | 452 kts | 266° |
| 2026-05-05 14:47 | 42.12976 | -18.75976 | 34317 ft | 452 kts | 266° |
| 2026-05-05 14:47 | 42.12143 | -18.84367 | 34317 ft | 452 kts | 266° |
| 2026-05-05 14:48 | 42.11308 | -18.92699 | 34320 ft | 452 kts | 266° |
| 2026-05-05 14:48 | 42.10461 | -19.01100 | 34322 ft | 452 kts | 266° |
| 2026-05-05 14:49 | 42.09608 | -19.09486 | 34322 ft | 452 kts | 266° |
| 2026-05-05 14:49 | 42.08747 | -19.17885 | 34325 ft | 453 kts | 267° |
| 2026-05-05 14:50 | 42.07882 | -19.26277 | 34330 ft | 453 kts | 267° |
| 2026-05-05 14:50 | 42.07009 | -19.34682 | 34330 ft | 453 kts | 267° |
| 2026-05-05 14:51 | 42.06130 | -19.43071 | 34330 ft | 453 kts | 266° |
| 2026-05-05 14:51 | 42.05250 | -19.51421 | 34332 ft | 454 kts | 268° |
| 2026-05-05 14:52 | 42.04354 | -19.59846 | 34332 ft | 455 kts | 268° |
| 2026-05-05 14:52 | 42.03455 | -19.68263 | 34334 ft | 455 kts | 268° |
| 2026-05-05 14:53 | 42.02545 | -19.76708 | 34331 ft | 455 kts | 268° |
| 2026-05-05 14:53 | 42.01641 | -19.85093 | 34337 ft | 455 kts | 270° |
| 2026-05-05 14:54 | 42.00725 | -19.93529 | 34340 ft | 457 kts | 270° |
| 2026-05-05 14:54 | 41.99784 | -20.01984 | 34341 ft | 457 kts | 269° |
| 2026-05-05 14:55 | 41.98557 | -20.10424 | 34347 ft | 461 kts | 266° |
| 2026-05-05 14:55 | 41.97189 | -20.18838 | 34355 ft | 462 kts | 267° |
| 2026-05-05 14:56 | 41.95864 | -20.27274 | 34352 ft | 462 kts | 268° |
| 2026-05-05 14:56 | 41.94552 | -20.35678 | 34352 ft | 462 kts | 267° |
| 2026-05-05 14:57 | 41.93221 | -20.44178 | 34336 ft | 462 kts | 268° |
| 2026-05-05 14:57 | 41.91900 | -20.52621 | 34342 ft | 463 kts | 268° |
| 2026-05-05 14:58 | 41.90574 | -20.61095 | 34346 ft | 464 kts | 268° |
| 2026-05-05 14:58 | 41.89244 | -20.69533 | 34347 ft | 465 kts | 268° |
| 2026-05-05 14:59 | 41.87900 | -20.78009 | 34351 ft | 465 kts | 268° |
| 2026-05-05 14:59 | 41.86551 | -20.86484 | 34351 ft | 465 kts | 268° |
| 2026-05-05 15:00 | 41.85413 | -20.93595 | 34362 ft | 465 kts | 268° |
| 2026-05-05 15:00 | 41.83828 | -21.03451 | 34359 ft | 465 kts | 268° |
| 2026-05-05 15:01 | 41.82458 | -21.11923 | 34352 ft | 465 kts | 268° |
| 2026-05-05 15:01 | 41.81078 | -21.20424 | 34358 ft | 466 kts | 267° |
| 2026-05-05 15:02 | 41.79702 | -21.28857 | 34363 ft | 466 kts | 267° |
| 2026-05-05 15:02 | 41.78311 | -21.37328 | 34354 ft | 466 kts | 267° |
| 2026-05-05 15:03 | 41.76915 | -21.45796 | 34353 ft | 466 kts | 267° |
| 2026-05-05 15:03 | 41.75511 | -21.54273 | 34360 ft | 465 kts | 266° |
| 2026-05-05 15:04 | 41.74102 | -21.62731 | 34360 ft | 465 kts | 266° |
| 2026-05-05 15:04 | 41.72691 | -21.71168 | 34360 ft | 465 kts | 266° |
| 2026-05-05 15:05 | 41.70560 | -21.83837 | 34354 ft | 464 kts | 266° |
| 2026-05-05 15:06 | 41.69133 | -21.92256 | 34362 ft | 463 kts | 266° |
| 2026-05-05 15:06 | 41.67707 | -22.00642 | 34362 ft | 462 kts | 266° |
| 2026-05-05 15:07 | 41.66283 | -22.08982 | 34365 ft | 463 kts | 265° |
| 2026-05-05 15:07 | 41.64844 | -22.17362 | 34365 ft | 463 kts | 265° |
| 2026-05-05 15:08 | 41.63387 | -22.25809 | 34365 ft | 463 kts | 265° |
| 2026-05-05 15:08 | 41.61946 | -22.34126 | 34368 ft | 463 kts | 265° |
| 2026-05-05 15:09 | 41.60489 | -22.42494 | 34369 ft | 463 kts | 265° |
| 2026-05-05 15:09 | 41.59024 | -22.50871 | 34366 ft | 462 kts | 265° |
| 2026-05-05 15:10 | 41.57556 | -22.59219 | 34374 ft | 462 kts | 265° |
| 2026-05-05 15:10 | 41.56092 | -22.67514 | 34373 ft | 461 kts | 265° |
| 2026-05-05 15:11 | 41.54615 | -22.75845 | 34371 ft | 461 kts | 265° |
| 2026-05-05 15:11 | 41.53130 | -22.84183 | 34370 ft | 461 kts | 264° |
| 2026-05-05 15:12 | 41.51641 | -22.92502 | 34375 ft | 460 kts | 264° |
| 2026-05-05 15:12 | 41.50147 | -23.00814 | 34376 ft | 460 kts | 264° |
| 2026-05-05 15:13 | 41.48650 | -23.09110 | 34376 ft | 460 kts | 264° |
| 2026-05-05 15:13 | 41.47154 | -23.17354 | 34380 ft | 459 kts | 264° |
| 2026-05-05 15:14 | 41.45647 | -23.25627 | 34375 ft | 458 kts | 264° |
| 2026-05-05 15:14 | 41.44138 | -23.33879 | 34378 ft | 458 kts | 264° |
| 2026-05-05 15:15 | 41.42620 | -23.42143 | 34382 ft | 459 kts | 264° |
| 2026-05-05 15:15 | 41.41099 | -23.50384 | 34384 ft | 458 kts | 264° |
| 2026-05-05 15:16 | 41.39572 | -23.58626 | 34384 ft | 458 kts | 263° |
| 2026-05-05 15:16 | 41.38041 | -23.66849 | 34384 ft | 458 kts | 263° |
| 2026-05-05 15:17 | 41.36502 | -23.75082 | 34362 ft | 458 kts | 263° |
| 2026-05-05 15:17 | 41.34960 | -23.83298 | 34387 ft | 458 kts | 263° |
| 2026-05-05 15:18 | 41.33420 | -23.91467 | 34389 ft | 458 kts | 263° |
| 2026-05-05 15:18 | 41.31864 | -23.99686 | 34392 ft | 457 kts | 263° |
| 2026-05-05 15:19 | 41.30305 | -24.07887 | 34365 ft | 457 kts | 263° |
| 2026-05-05 15:19 | 41.28737 | -24.16096 | 34386 ft | 457 kts | 263° |
| 2026-05-05 15:20 | 41.27167 | -24.24285 | 34387 ft | 457 kts | 263° |
| 2026-05-05 15:20 | 41.25589 | -24.32484 | 34392 ft | 457 kts | 263° |
| 2026-05-05 15:21 | 41.24004 | -24.40680 | 34380 ft | 457 kts | 263° |
| 2026-05-05 15:21 | 41.22414 | -24.48871 | 34389 ft | 457 kts | 263° |
| 2026-05-05 15:22 | 41.20821 | -24.57043 | 34389 ft | 457 kts | 263° |
| 2026-05-05 15:22 | 41.19230 | -24.65170 | 34393 ft | 457 kts | 262° |
| 2026-05-05 15:23 | 41.17625 | -24.73334 | 34381 ft | 457 kts | 263° |
| 2026-05-05 15:23 | 41.16014 | -24.81501 | 34392 ft | 457 kts | 263° |
| 2026-05-05 15:24 | 41.14397 | -24.89661 | 34392 ft | 457 kts | 263° |
| 2026-05-05 15:24 | 41.12778 | -24.97801 | 34396 ft | 457 kts | 263° |
| 2026-05-05 15:25 | 41.11152 | -25.05937 | 34395 ft | 457 kts | 263° |
| 2026-05-05 15:25 | 41.09528 | -25.14035 | 34396 ft | 457 kts | 263° |
| 2026-05-05 15:26 | 41.07888 | -25.22185 | 34394 ft | 457 kts | 263° |
| 2026-05-05 15:26 | 41.06243 | -25.30318 | 34397 ft | 457 kts | 263° |
| 2026-05-05 15:27 | 41.04590 | -25.38462 | 34395 ft | 457 kts | 263° |
| 2026-05-05 15:27 | 41.02934 | -25.46589 | 34401 ft | 457 kts | 263° |
| 2026-05-05 15:28 | 41.01270 | -25.54725 | 34401 ft | 457 kts | 263° |
| 2026-05-05 15:28 | 40.99602 | -25.62847 | 34401 ft | 457 kts | 263° |
| 2026-05-05 15:29 | 40.97933 | -25.70944 | 34396 ft | 458 kts | 263° |
| 2026-05-05 15:29 | 40.96530 | -25.77724 | 34400 ft | 459 kts | 263° |
| 2026-05-05 15:30 | 40.94551 | -25.87249 | 34399 ft | 459 kts | 263° |
| 2026-05-05 15:30 | 40.93143 | -25.93999 | 34398 ft | 459 kts | 263° |
| 2026-05-05 15:31 | 40.91438 | -26.02141 | 34403 ft | 459 kts | 264° |
| 2026-05-05 15:31 | 40.89730 | -26.10273 | 34400 ft | 459 kts | 264° |
| 2026-05-05 15:32 | 40.88015 | -26.18406 | 34403 ft | 460 kts | 264° |
| 2026-05-05 15:32 | 40.86288 | -26.26561 | 34377 ft | 459 kts | 264° |
| 2026-05-05 15:33 | 40.84559 | -26.34702 | 34401 ft | 460 kts | 264° |
| 2026-05-05 15:33 | 40.82833 | -26.42789 | 34407 ft | 460 kts | 264° |
| 2026-05-05 15:34 | 40.81092 | -26.50914 | 34408 ft | 460 kts | 264° |
| 2026-05-05 15:34 | 40.79346 | -26.59034 | 34398 ft | 460 kts | 264° |
| 2026-05-05 15:35 | 40.77585 | -26.67193 | 34410 ft | 460 kts | 264° |
| 2026-05-05 15:35 | 40.75827 | -26.75307 | 34410 ft | 460 kts | 264° |
| 2026-05-05 15:36 | 40.74073 | -26.83379 | 34407 ft | 460 kts | 264° |
| 2026-05-05 15:36 | 40.72300 | -26.91498 | 34412 ft | 460 kts | 264° |
| 2026-05-05 15:37 | 40.70523 | -26.99608 | 34411 ft | 460 kts | 264° |
| 2026-05-05 15:37 | 40.68751 | -27.07668 | 34411 ft | 460 kts | 264° |
| 2026-05-05 15:38 | 40.66964 | -27.15765 | 34411 ft | 460 kts | 264° |
| 2026-05-05 15:38 | 40.65173 | -27.23850 | 34409 ft | 458 kts | 263° |
| 2026-05-05 15:39 | 40.63382 | -27.31904 | 34410 ft | 457 kts | 263° |
| 2026-05-05 15:39 | 40.61591 | -27.39938 | 34411 ft | 458 kts | 263° |
| 2026-05-05 15:40 | 40.59789 | -27.47986 | 34400 ft | 458 kts | 263° |
| 2026-05-05 15:40 | 40.57982 | -27.56023 | 34415 ft | 457 kts | 263° |
| 2026-05-05 15:41 | 40.56171 | -27.64048 | 34409 ft | 457 kts | 263° |
| 2026-05-05 15:41 | 40.54371 | -27.72000 | 34416 ft | 457 kts | 263° |
| 2026-05-05 15:42 | 40.52551 | -27.80014 | 34404 ft | 457 kts | 263° |
| 2026-05-05 15:42 | 40.50726 | -27.88022 | 34415 ft | 458 kts | 263° |
| 2026-05-05 15:43 | 40.48893 | -27.96029 | 34417 ft | 458 kts | 263° |
| 2026-05-05 15:43 | 40.47052 | -28.04045 | 34422 ft | 458 kts | 263° |
| 2026-05-05 15:44 | 40.45209 | -28.12033 | 34416 ft | 457 kts | 262° |
| 2026-05-05 15:44 | 40.43363 | -28.20016 | 34420 ft | 456 kts | 262° |
| 2026-05-05 15:45 | 40.41514 | -28.27981 | 34421 ft | 456 kts | 262° |
| 2026-05-05 15:45 | 40.39669 | -28.35905 | 34423 ft | 457 kts | 262° |
| 2026-05-05 15:46 | 40.37807 | -28.43880 | 34422 ft | 457 kts | 262° |
| 2026-05-05 15:46 | 40.35941 | -28.51839 | 34422 ft | 457 kts | 262° |
| 2026-05-05 15:47 | 40.34062 | -28.59820 | 34425 ft | 457 kts | 262° |
| 2026-05-05 15:47 | 40.32193 | -28.67732 | 34408 ft | 457 kts | 262° |
| 2026-05-05 15:48 | 40.30306 | -28.75716 | 34429 ft | 459 kts | 262° |
| 2026-05-05 15:48 | 40.28409 | -28.83704 | 34433 ft | 459 kts | 261° |
| 2026-05-05 15:49 | 40.26501 | -28.91700 | 34427 ft | 460 kts | 261° |
| 2026-05-05 15:49 | 40.24587 | -28.99685 | 34434 ft | 461 kts | 261° |
| 2026-05-05 15:50 | 40.22662 | -29.07692 | 34420 ft | 462 kts | 261° |
| 2026-05-05 15:50 | 40.20726 | -29.15719 | 34417 ft | 462 kts | 261° |
| 2026-05-05 15:51 | 40.18791 | -29.23689 | 34431 ft | 462 kts | 261° |
| 2026-05-05 15:51 | 40.16852 | -29.31703 | 34427 ft | 461 kts | 261° |
| 2026-05-05 15:52 | 40.14922 | -29.39688 | 34427 ft | 461 kts | 261° |
| 2026-05-05 15:52 | 40.12967 | -29.47673 | 34429 ft | 462 kts | 260° |
| 2026-05-05 15:53 | 40.10995 | -29.55665 | 34418 ft | 461 kts | 260° |
| 2026-05-05 15:53 | 40.09026 | -29.63641 | 34429 ft | 461 kts | 259° |
| 2026-05-05 15:54 | 40.07042 | -29.71601 | 34426 ft | 460 kts | 260° |
| 2026-05-05 15:54 | 40.05095 | -29.79512 | 34427 ft | 460 kts | 260° |
| 2026-05-05 15:55 | 40.03129 | -29.87462 | 34426 ft | 461 kts | 260° |
| 2026-05-05 15:55 | 40.01148 | -29.95418 | 34428 ft | 461 kts | 260° |
| 2026-05-05 15:56 | 39.99492 | -30.03446 | 34429 ft | 455 kts | 265° |
| 2026-05-05 15:56 | 39.98214 | -30.11525 | 34404 ft | 454 kts | 266° |
| 2026-05-05 15:57 | 39.96984 | -30.19610 | 34427 ft | 456 kts | 266° |
| 2026-05-05 15:57 | 39.95740 | -30.27742 | 34425 ft | 456 kts | 266° |
| 2026-05-05 15:58 | 39.94510 | -30.35787 | 34428 ft | 456 kts | 266° |
| 2026-05-05 15:58 | 39.93244 | -30.43899 | 34427 ft | 457 kts | 265° |
| 2026-05-05 15:59 | 39.91952 | -30.52005 | 34426 ft | 457 kts | 265° |
| 2026-05-05 15:59 | 39.90670 | -30.60126 | 34429 ft | 457 kts | 265° |
| 2026-05-05 16:00 | 39.89391 | -30.68232 | 34418 ft | 457 kts | 265° |
| 2026-05-05 16:00 | 39.88105 | -30.76340 | 34427 ft | 458 kts | 265° |
| 2026-05-05 16:01 | 39.86807 | -30.84470 | 34429 ft | 458 kts | 265° |
| 2026-05-05 16:01 | 39.85503 | -30.92586 | 34428 ft | 458 kts | 265° |
| 2026-05-05 16:02 | 39.84190 | -31.00697 | 34422 ft | 458 kts | 264° |
| 2026-05-05 16:02 | 39.82875 | -31.08803 | 34429 ft | 457 kts | 264° |
| 2026-05-05 16:03 | 39.81564 | -31.16843 | 34427 ft | 457 kts | 264° |
| 2026-05-05 16:03 | 39.80249 | -31.24928 | 34427 ft | 457 kts | 264° |
| 2026-05-05 16:04 | 39.78927 | -31.33026 | 34433 ft | 457 kts | 264° |
| 2026-05-05 16:04 | 39.77591 | -31.41116 | 34434 ft | 457 kts | 264° |
| 2026-05-05 16:05 | 39.76244 | -31.49202 | 34426 ft | 457 kts | 264° |
| 2026-05-05 16:05 | 39.74894 | -31.57278 | 34431 ft | 457 kts | 264° |
| 2026-05-05 16:06 | 39.73562 | -31.65274 | 34435 ft | 456 kts | 264° |
| 2026-05-05 16:06 | 39.72215 | -31.73314 | 34435 ft | 456 kts | 264° |
| 2026-05-05 16:07 | 39.70854 | -31.81366 | 34423 ft | 456 kts | 263° |
| 2026-05-05 16:07 | 39.69488 | -31.89392 | 34436 ft | 455 kts | 263° |
| 2026-05-05 16:08 | 39.68121 | -31.97402 | 34436 ft | 455 kts | 263° |
| 2026-05-05 16:08 | 39.66749 | -32.05423 | 34435 ft | 455 kts | 263° |
| 2026-05-05 16:09 | 39.65374 | -32.13418 | 34432 ft | 453 kts | 263° |
| 2026-05-05 16:09 | 39.63999 | -32.21376 | 34436 ft | 451 kts | 263° |
| 2026-05-05 16:10 | 39.62624 | -32.29313 | 34438 ft | 450 kts | 263° |
| 2026-05-05 16:10 | 39.61252 | -32.37196 | 34429 ft | 450 kts | 263° |
| 2026-05-05 16:11 | 39.59874 | -32.45062 | 34435 ft | 445 kts | 263° |
| 2026-05-05 16:12 | 39.57128 | -32.60675 | 34435 ft | 444 kts | 263° |
| 2026-05-05 16:13 | 39.53680 | -32.80087 | 34435 ft | 441 kts | 263° |
| 2026-05-05 16:13 | 39.52304 | -32.87783 | 34435 ft | 441 kts | 263° |
| 2026-05-05 16:14 | 39.49753 | -33.01956 | 34436 ft | 441 kts | 262° |
| 2026-05-05 16:15 | 39.46950 | -33.17408 | 34429 ft | 441 kts | 262° |
| 2026-05-05 16:16 | 39.44137 | -33.32793 | 34429 ft | 440 kts | 262° |
| 2026-05-05 16:17 | 39.42010 | -33.44347 | 34421 ft | 440 kts | 262° |
| 2026-05-05 16:18 | 39.39870 | -33.55900 | 34430 ft | 440 kts | 262° |
| 2026-05-05 16:19 | 39.37725 | -33.67415 | 34428 ft | 440 kts | 262° |
| 2026-05-05 16:19 | 39.35558 | -33.78982 | 34429 ft | 442 kts | 262° |
| 2026-05-05 16:20 | 39.32647 | -33.94395 | 34427 ft | 441 kts | 262° |
| 2026-05-05 16:22 | 39.28996 | -34.13578 | 34426 ft | 441 kts | 261° |
| 2026-05-05 16:23 | 39.26052 | -34.28906 | 34423 ft | 441 kts | 261° |
| 2026-05-05 16:23 | 39.23829 | -34.40403 | 34424 ft | 440 kts | 261° |
| 2026-05-05 16:24 | 39.22340 | -34.48071 | 34400 ft | 440 kts | 261° |
| 2026-05-05 16:25 | 39.20096 | -34.59568 | 34427 ft | 440 kts | 261° |
| 2026-05-05 16:25 | 39.17851 | -34.71005 | 34417 ft | 440 kts | 261° |
| 2026-05-05 16:26 | 39.14833 | -34.86278 | 34417 ft | 439 kts | 261° |
| 2026-05-05 16:27 | 39.13318 | -34.93905 | 34414 ft | 439 kts | 261° |
| 2026-05-05 16:27 | 39.11801 | -35.01517 | 34409 ft | 439 kts | 260° |
| 2026-05-05 16:28 | 39.10276 | -35.09131 | 34416 ft | 438 kts | 260° |
| 2026-05-05 16:28 | 39.08751 | -35.16725 | 34414 ft | 438 kts | 260° |
| 2026-05-05 16:29 | 39.07221 | -35.24315 | 34415 ft | 438 kts | 260° |
| 2026-05-05 16:29 | 39.05684 | -35.31908 | 34414 ft | 437 kts | 260° |
| 2026-05-05 16:30 | 39.04156 | -35.39432 | 34414 ft | 437 kts | 260° |
| 2026-05-05 16:30 | 39.02614 | -35.46999 | 34411 ft | 437 kts | 260° |
| 2026-05-05 16:31 | 39.01069 | -35.54550 | 34410 ft | 437 kts | 260° |
| 2026-05-05 16:31 | 38.99518 | -35.62109 | 34411 ft | 437 kts | 260° |
| 2026-05-05 16:32 | 38.97964 | -35.69651 | 34408 ft | 437 kts | 260° |
| 2026-05-05 16:32 | 38.96410 | -35.77166 | 34399 ft | 437 kts | 259° |
| 2026-05-05 16:33 | 38.94845 | -35.84709 | 34406 ft | 436 kts | 259° |
| 2026-05-05 16:33 | 38.93278 | -35.92232 | 34406 ft | 436 kts | 259° |
| 2026-05-05 16:34 | 38.91707 | -35.99751 | 34401 ft | 436 kts | 259° |
| 2026-05-05 16:34 | 38.90130 | -36.07272 | 34402 ft | 435 kts | 259° |
| 2026-05-05 16:35 | 38.88560 | -36.14732 | 34403 ft | 435 kts | 259° |
| 2026-05-05 16:35 | 38.86975 | -36.22238 | 34403 ft | 435 kts | 259° |
| 2026-05-05 16:36 | 38.85389 | -36.29728 | 34400 ft | 435 kts | 258° |
| 2026-05-05 16:36 | 38.83798 | -36.37213 | 34407 ft | 435 kts | 258° |
| 2026-05-05 16:37 | 38.82200 | -36.44697 | 34400 ft | 434 kts | 258° |
| 2026-05-05 16:37 | 38.80604 | -36.52150 | 34401 ft | 434 kts | 258° |
| 2026-05-05 16:38 | 38.79002 | -36.59610 | 34403 ft | 433 kts | 258° |
| 2026-05-05 16:38 | 38.77398 | -36.67053 | 34403 ft | 433 kts | 258° |
| 2026-05-05 16:39 | 38.75786 | -36.74505 | 34400 ft | 433 kts | 258° |
| 2026-05-05 16:39 | 38.74169 | -36.81955 | 34395 ft | 433 kts | 258° |
| 2026-05-05 16:40 | 38.72562 | -36.89336 | 34398 ft | 433 kts | 258° |
| 2026-05-05 16:40 | 38.70940 | -36.96759 | 34398 ft | 433 kts | 258° |
| 2026-05-05 16:41 | 38.69311 | -37.04192 | 34395 ft | 433 kts | 258° |
| 2026-05-05 16:41 | 38.67680 | -37.11608 | 34390 ft | 433 kts | 258° |
| 2026-05-05 16:42 | 38.66046 | -37.19013 | 34398 ft | 432 kts | 257° |
| 2026-05-05 16:42 | 38.64403 | -37.26433 | 34400 ft | 432 kts | 257° |
| 2026-05-05 16:43 | 38.62760 | -37.33826 | 34392 ft | 432 kts | 257° |
| 2026-05-05 16:43 | 38.61122 | -37.41178 | 34388 ft | 432 kts | 257° |
| 2026-05-05 16:44 | 38.59468 | -37.48575 | 34389 ft | 432 kts | 257° |
| 2026-05-05 16:44 | 38.57810 | -37.55966 | 34389 ft | 432 kts | 257° |
| 2026-05-05 16:45 | 38.56147 | -37.63355 | 34390 ft | 432 kts | 257° |
| 2026-05-05 16:45 | 38.54484 | -37.70721 | 34388 ft | 431 kts | 257° |
| 2026-05-05 16:46 | 38.52832 | -37.78011 | 34387 ft | 429 kts | 257° |
| 2026-05-05 16:46 | 38.51170 | -37.85326 | 34387 ft | 429 kts | 257° |
| 2026-05-05 16:47 | 38.49503 | -37.92639 | 34381 ft | 429 kts | 257° |
| 2026-05-05 16:47 | 38.47828 | -37.99962 | 34380 ft | 429 kts | 257° |
| 2026-05-05 16:48 | 38.46150 | -38.07276 | 34384 ft | 429 kts | 257° |
| 2026-05-05 16:48 | 38.44470 | -38.14576 | 34385 ft | 429 kts | 257° |
| 2026-05-05 16:49 | 38.42782 | -38.21885 | 34378 ft | 429 kts | 256° |
| 2026-05-05 16:49 | 38.41091 | -38.29190 | 34375 ft | 429 kts | 256° |
| 2026-05-05 16:50 | 38.39407 | -38.36435 | 34379 ft | 429 kts | 256° |
| 2026-05-05 16:50 | 38.37705 | -38.43738 | 34376 ft | 429 kts | 256° |
| 2026-05-05 16:51 | 38.36001 | -38.51026 | 34369 ft | 429 kts | 256° |
| 2026-05-05 16:51 | 38.34287 | -38.58334 | 34376 ft | 429 kts | 256° |
| 2026-05-05 16:52 | 38.32575 | -38.65613 | 34369 ft | 429 kts | 256° |
| 2026-05-05 16:52 | 38.30858 | -38.72888 | 34372 ft | 429 kts | 256° |
| 2026-05-05 16:53 | 38.29144 | -38.80126 | 34360 ft | 429 kts | 256° |
| 2026-05-05 16:53 | 38.27418 | -38.87398 | 34371 ft | 429 kts | 256° |
| 2026-05-05 16:54 | 38.25688 | -38.94657 | 34372 ft | 428 kts | 256° |
| 2026-05-05 16:54 | 38.23958 | -39.01900 | 34368 ft | 427 kts | 256° |
| 2026-05-05 16:55 | 38.22224 | -39.09136 | 34357 ft | 427 kts | 256° |
| 2026-05-05 16:55 | 38.20489 | -39.16357 | 34363 ft | 427 kts | 256° |
| 2026-05-05 16:56 | 38.19229 | -39.21585 | 34362 ft | 427 kts | 256° |
| 2026-05-05 16:56 | 38.17483 | -39.28811 | 34364 ft | 427 kts | 256° |
| 2026-05-05 16:57 | 38.15736 | -39.36020 | 34363 ft | 427 kts | 256° |
| 2026-05-05 16:57 | 38.13980 | -39.43243 | 34361 ft | 427 kts | 256° |
| 2026-05-05 16:58 | 38.12222 | -39.50457 | 34360 ft | 427 kts | 256° |
| 2026-05-05 16:58 | 38.10469 | -39.57622 | 34360 ft | 427 kts | 256° |
| 2026-05-05 16:59 | 38.08704 | -39.64823 | 34359 ft | 427 kts | 256° |
| 2026-05-05 16:59 | 38.06933 | -39.72021 | 34360 ft | 427 kts | 256° |
| 2026-05-05 17:00 | 38.05158 | -39.79214 | 34358 ft | 427 kts | 256° |
| 2026-05-05 17:00 | 38.03380 | -39.86401 | 34356 ft | 427 kts | 255° |
| 2026-05-05 17:01 | 38.01596 | -39.93589 | 34352 ft | 427 kts | 255° |
| 2026-05-05 17:01 | 37.99587 | -40.00680 | 34348 ft | 430 kts | 248° |
| 2026-05-05 17:02 | 37.96849 | -40.07427 | 34348 ft | 431 kts | 245° |
| 2026-05-05 17:02 | 37.93970 | -40.14105 | 34337 ft | 432 kts | 245° |
| 2026-05-05 17:03 | 37.91557 | -40.19644 | 34344 ft | 432 kts | 245° |
| 2026-05-05 17:03 | 37.88660 | -40.26314 | 34344 ft | 432 kts | 245° |
| 2026-05-05 17:04 | 37.85784 | -40.32946 | 34344 ft | 431 kts | 245° |
| 2026-05-05 17:04 | 37.82900 | -40.39593 | 34343 ft | 431 kts | 245° |
| 2026-05-05 17:05 | 37.80007 | -40.46244 | 34343 ft | 431 kts | 245° |
| 2026-05-05 17:05 | 37.77117 | -40.52876 | 34342 ft | 430 kts | 245° |
| 2026-05-05 17:06 | 37.74221 | -40.59506 | 34351 ft | 430 kts | 245° |
| 2026-05-05 17:06 | 37.71327 | -40.66119 | 34342 ft | 430 kts | 245° |
| 2026-05-05 17:07 | 37.68440 | -40.72703 | 34339 ft | 430 kts | 245° |
| 2026-05-05 17:07 | 37.65538 | -40.79307 | 34333 ft | 430 kts | 245° |
| 2026-05-05 17:08 | 37.62632 | -40.85904 | 34334 ft | 430 kts | 244° |
| 2026-05-05 17:08 | 37.59730 | -40.92482 | 34346 ft | 429 kts | 244° |
| 2026-05-05 17:09 | 37.56819 | -40.99064 | 34345 ft | 430 kts | 244° |
| 2026-05-05 17:09 | 37.53906 | -41.05640 | 34338 ft | 429 kts | 244° |
| 2026-05-05 17:10 | 37.50986 | -41.12216 | 34343 ft | 429 kts | 244° |
| 2026-05-05 17:10 | 37.48089 | -41.18729 | 34331 ft | 429 kts | 244° |
| 2026-05-05 17:11 | 37.45171 | -41.25275 | 34335 ft | 429 kts | 244° |
| 2026-05-05 17:11 | 37.42247 | -41.31822 | 34334 ft | 429 kts | 244° |
| 2026-05-05 17:12 | 37.39316 | -41.38371 | 34333 ft | 429 kts | 244° |
| 2026-05-05 17:12 | 37.36384 | -41.44908 | 34331 ft | 429 kts | 244° |
| 2026-05-05 17:13 | 37.33452 | -41.51435 | 34330 ft | 429 kts | 244° |
| 2026-05-05 17:13 | 37.30515 | -41.57956 | 34330 ft | 429 kts | 244° |
| 2026-05-05 17:14 | 37.27574 | -41.64474 | 34332 ft | 429 kts | 244° |
| 2026-05-05 17:14 | 37.24631 | -41.70984 | 34328 ft | 429 kts | 244° |
| 2026-05-05 17:15 | 37.21704 | -41.77447 | 34332 ft | 429 kts | 243° |